Time;durP1;ratioP1;P1;durP2;ratioP2;P2;SDS_P1;SDS_P2;PMS_P1;PMS_P2;Temp;Humidity;BMP_temperature;BMP_pressure;BME280_temperature;BME280_humidity;BME280_pressure;Samples;Min_cycle;Max_cycle;Signal;HPM_P1;HPM_P2
2023/09/30 00:00:56;;;;;;;;;8.00;6.33;;;;;18.77;65.52;101855.91;6184047;22;45396;-76
2023/09/30 00:03:21;;;;;;;;;6.00;5.00;;;;;18.78;65.92;101860.38;6209758;22;45393;-75
2023/09/30 00:05:47;;;;;;;;;6.33;5.33;;;;;18.82;65.63;101862.19;6209760;22;46770;-77
2023/09/30 00:08:12;;;;;;;;;6.00;6.00;;;;;18.72;65.99;101863.09;6211877;22;45404;-75
2023/09/30 00:10:37;;;;;;;;;7.00;6.33;;;;;18.70;66.27;101871.16;6212114;22;45403;-75
2023/09/30 00:13:03;;;;;;;;;9.67;7.00;;;;;18.64;65.84;101875.66;6212146;22;45557;-76
2023/09/30 00:15:28;;;;;;;;;6.67;4.67;;;;;18.63;65.90;101868.50;6185401;22;47144;-76
2023/09/30 00:17:54;;;;;;;;;5.67;5.00;;;;;18.62;66.26;101867.59;6211570;22;45401;-75
2023/09/30 00:20:19;;;;;;;;;10.00;7.33;;;;;18.62;65.99;101872.09;6211787;22;45539;-75
2023/09/30 00:22:44;;;;;;;;;11.00;8.00;;;;;18.61;66.37;101864.91;6184956;22;45398;-75
2023/09/30 00:25:10;;;;;;;;;7.33;6.33;;;;;18.55;66.48;101872.09;6211736;22;46287;-75
2023/09/30 00:27:36;;;;;;;;;6.00;6.00;;;;;18.59;66.48;101879.28;6210461;22;45390;-75
2023/09/30 00:30:02;;;;;;;;;6.67;6.67;;;;;18.53;66.81;101873.88;6184486;22;45804;-75
2023/09/30 00:32:28;;;;;;;;;9.67;8.33;;;;;18.59;66.97;101876.56;6209784;22;45423;-76
2023/09/30 00:34:54;;;;;;;;;5.00;5.00;;;;;18.48;67.10;101881.09;6211121;22;45720;-75
2023/09/30 00:37:19;;;;;;;;;7.33;6.00;;;;;18.41;66.85;101879.28;6210886;22;45402;-74
2023/09/30 00:39:45;;;;;;;;;4.33;4.00;;;;;18.46;67.62;101871.19;6209450;22;45479;-75
2023/09/30 00:42:10;;;;;;;;;4.67;4.67;;;;;18.54;66.90;101864.91;6184208;22;45393;-74
2023/09/30 00:44:36;;;;;;;;;7.00;5.33;;;;;18.51;66.96;101854.13;6211696;22;45317;-75
2023/09/30 00:47:02;;;;;;;;;7.00;5.00;;;;;18.50;67.61;101857.75;6211317;22;45345;-75
2023/09/30 00:49:28;;;;;;;;;8.00;5.00;;;;;18.49;67.68;101855.94;6211547;22;45396;-75
2023/09/30 00:51:55;;;;;;;;;10.00;8.67;;;;;18.41;67.68;101849.66;6211385;22;45328;-75
2023/09/30 00:54:23;;;;;;;;;6.00;6.00;;;;;18.37;67.85;101850.56;6209481;22;48172;-74
2023/09/30 00:56:50;;;;;;;;;6.00;6.00;;;;;18.38;67.66;101841.59;6210713;22;45559;-75
2023/09/30 00:59:16;;;;;;;;;7.00;6.67;;;;;18.30;68.11;101827.19;6211292;22;45421;-69
2023/09/30 01:01:44;;;;;;;;;11.67;8.00;;;;;18.33;67.89;101840.69;6185792;22;45372;-75
2023/09/30 01:04:16;;;;;;;;;7.67;7.67;;;;;18.47;68.12;101859.53;6209083;22;46205;-76
2023/09/30 01:06:41;;;;;;;;;6.00;6.00;;;;;18.22;68.03;101864.00;6212046;22;45371;-76
2023/09/30 01:09:08;;;;;;;;;3.67;3.67;;;;;18.33;69.25;101868.50;6211691;22;45344;-76
2023/09/30 01:11:33;;;;;;;;;7.00;6.67;;;;;18.31;68.36;101866.72;6184874;22;45277;-76
2023/09/30 01:13:59;;;;;;;;;7.33;6.67;;;;;18.26;68.15;101857.72;6223516;22;47568;-74
2023/09/30 01:16:24;;;;;;;;;7.00;6.33;;;;;18.25;68.30;101873.00;6231353;22;45255;-74
2023/09/30 01:18:50;;;;;;;;;4.00;4.00;;;;;18.19;68.14;101873.88;6230897;22;45143;-72
2023/09/30 01:21:17;;;;;;;;;9.33;7.00;;;;;18.25;68.54;101881.06;6231165;22;44687;-73
2023/09/30 01:23:43;;;;;;;;;5.00;5.00;;;;;18.19;68.55;101883.75;6230618;22;45165;-73
2023/09/30 01:26:12;;;;;;;;;6.33;4.00;;;;;18.31;68.61;101880.19;6230856;22;44806;-74
2023/09/30 01:28:38;;;;;;;;;5.67;5.00;;;;;18.30;68.12;101883.75;6231383;22;45218;-72
2023/09/30 01:31:04;;;;;;;;;7.00;6.00;;;;;18.26;68.38;101876.56;6204836;22;44793;-74
2023/09/30 01:33:29;;;;;;;;;4.33;4.33;;;;;18.18;68.45;101865.81;6232453;22;45119;-74
2023/09/30 01:35:55;;;;;;;;;8.33;7.00;;;;;18.13;68.33;101865.81;6231556;22;44729;-72
2023/09/30 01:38:21;;;;;;;;;6.67;5.67;;;;;18.12;68.76;101864.03;6205277;22;44984;-74
2023/09/30 01:40:47;;;;;;;;;6.00;5.33;;;;;18.16;68.70;101852.34;6231781;22;44844;-74
2023/09/30 01:43:13;;;;;;;;;8.33;6.00;;;;;18.06;68.95;101845.16;6206023;22;47094;-73
2023/09/30 01:45:42;;;;;;;;;5.00;5.00;;;;;18.05;69.25;101837.97;6230193;22;44730;-73
2023/09/30 01:48:10;;;;;;;;;8.00;6.67;;;;;18.03;68.85;101842.47;6231693;22;44746;-74
2023/09/30 01:50:37;;;;;;;;;7.33;5.00;;;;;18.01;69.10;101846.94;6232773;22;44716;-73
2023/09/30 01:53:05;;;;;;;;;8.67;6.00;;;;;18.03;69.02;101839.78;6231193;22;45098;-73
2023/09/30 01:55:30;;;;;;;;;8.00;7.00;;;;;18.02;69.01;101842.44;6202751;22;44753;-73
2023/09/30 01:57:55;;;;;;;;;9.33;6.33;;;;;18.04;69.26;101840.66;6230660;22;44806;-73
2023/09/30 02:00:21;;;;;;;;;5.00;5.00;;;;;18.08;69.29;101843.38;6230212;22;44916;-74
2023/09/30 02:02:46;;;;;;;;;6.00;6.00;;;;;18.07;69.12;101836.19;6229914;22;45049;-73
2023/09/30 02:05:12;;;;;;;;;10.00;7.67;;;;;18.09;69.21;101842.47;6226651;22;44794;-73
2023/09/30 02:07:37;;;;;;;;;4.33;4.00;;;;;18.07;69.48;101851.44;6213542;22;46221;-73
2023/09/30 02:10:03;;;;;;;;;7.00;6.00;;;;;18.06;69.49;101850.56;6214392;22;45344;-73
2023/09/30 02:12:28;;;;;;;;;5.33;4.33;;;;;18.10;69.70;101852.34;6213020;22;46531;-73
2023/09/30 02:14:54;;;;;;;;;7.00;7.00;;;;;18.12;69.54;101855.06;6214160;22;45352;-73
2023/09/30 02:17:19;;;;;;;;;7.00;5.67;;;;;18.10;69.87;101852.34;6187509;22;45422;-74
2023/09/30 02:19:45;;;;;;;;;5.67;4.33;;;;;18.05;69.83;101843.34;6215392;22;45350;-73
2023/09/30 02:22:11;;;;;;;;;10.00;6.33;;;;;18.05;69.56;101854.13;6211906;22;46704;-74
2023/09/30 02:24:40;;;;;;;;;5.00;5.00;;;;;18.14;69.98;101847.88;6213761;22;45469;-73
2023/09/30 02:27:05;;;;;;;;;10.00;10.00;;;;;18.03;69.92;101847.84;6187077;22;45340;-72
2023/09/30 02:29:31;;;;;;;;;9.67;7.00;;;;;18.00;70.24;101839.78;6214328;22;45335;-73
2023/09/30 02:31:56;;;;;;;;;5.67;5.67;;;;;17.95;70.25;101833.47;6212984;22;46129;-73
2023/09/30 02:34:22;;;;;;;;;10.00;6.00;;;;;17.99;70.45;101846.06;6214192;22;45511;-73
2023/09/30 02:36:47;;;;;;;;;8.33;6.67;;;;;17.97;70.56;101845.16;6214729;22;45356;-73
2023/09/30 02:39:16;;;;;;;;;7.67;7.67;;;;;17.95;70.58;101839.75;6189082;22;45597;-74
2023/09/30 02:41:41;;;;;;;;;6.33;6.00;;;;;17.95;71.10;101830.78;6213670;22;47771;-73
2023/09/30 02:44:07;;;;;;;;;9.33;9.33;;;;;17.93;70.96;101833.47;6215764;22;45809;-74
2023/09/30 02:46:32;;;;;;;;;9.00;9.00;;;;;17.90;71.16;101836.19;6185764;22;45506;-73
2023/09/30 02:48:58;;;;;;;;;6.33;6.33;;;;;17.91;71.31;101834.38;6184500;22;45342;-74
2023/09/30 02:51:25;;;;;;;;;11.00;8.33;;;;;17.90;71.37;101851.44;6211225;22;45968;-74
2023/09/30 02:53:50;;;;;;;;;8.00;8.00;;;;;17.88;70.99;101847.84;6210634;22;45451;-74
2023/09/30 02:56:15;;;;;;;;;8.00;6.67;;;;;17.85;71.22;101858.59;6210971;22;45449;-74
2023/09/30 02:58:41;;;;;;;;;8.67;8.00;;;;;17.83;71.58;101855.88;6211178;22;45276;-73
2023/09/30 03:01:06;;;;;;;;;8.00;8.00;;;;;17.83;71.64;101863.03;6210944;22;45861;-73
2023/09/30 03:03:33;;;;;;;;;5.33;5.33;;;;;17.86;71.42;101873.84;6209850;22;45466;-73
2023/09/30 03:06:00;;;;;;;;;8.00;5.67;;;;;17.76;71.99;101868.41;6211956;22;45380;-73
2023/09/30 03:08:26;;;;;;;;;9.00;7.00;;;;;17.75;71.13;101873.78;6211203;22;45380;-73
2023/09/30 03:10:54;;;;;;;;;8.67;6.67;;;;;17.89;72.09;101863.09;6210493;22;45428;-74
2023/09/30 03:13:21;;;;;;;;;6.00;6.00;;;;;17.59;71.79;101873.75;6210146;22;45467;-73
2023/09/30 03:15:49;;;;;;;;;7.33;6.00;;;;;17.55;71.91;101869.25;6184224;22;45410;-73
2023/09/30 03:18:17;;;;;;;;;4.33;4.33;;;;;17.50;71.48;101875.50;6184348;22;45379;-73
2023/09/30 03:20:43;;;;;;;;;5.00;2.67;;;;;17.51;71.95;101882.66;6211136;22;46881;-73
2023/09/30 03:23:08;;;;;;;;;4.67;4.67;;;;;17.50;71.99;101878.19;6211916;22;45432;-73
2023/09/30 03:25:34;;;;;;;;;6.00;4.33;;;;;17.49;71.61;101880.00;6211985;22;45387;-73
2023/09/30 03:27:59;;;;;;;;;3.00;3.00;;;;;17.47;71.93;101880.88;6212068;22;45736;-74
2023/09/30 03:30:25;;;;;;;;;6.00;4.33;;;;;17.46;71.94;101879.09;6211554;22;45400;-72
2023/09/30 03:32:50;;;;;;;;;5.33;4.00;;;;;17.47;71.89;101889.84;6211818;22;45430;-73
2023/09/30 03:35:18;;;;;;;;;5.67;4.67;;;;;17.41;71.95;101895.22;6184472;22;45826;-73
2023/09/30 03:37:45;;;;;;;;;6.00;4.00;;;;;17.44;72.26;101907.75;6212398;22;45346;-73
2023/09/30 03:40:13;;;;;;;;;7.00;6.00;;;;;17.44;72.48;101899.69;6211486;22;45395;-73
2023/09/30 03:42:42;;;;;;;;;7.33;7.33;;;;;17.39;72.79;101899.66;6184521;22;45441;-73
2023/09/30 03:45:09;;;;;;;;;7.67;6.33;;;;;17.26;72.51;101887.94;6184726;22;45414;-74
2023/09/30 03:47:35;;;;;;;;;8.67;6.00;;;;;17.28;72.87;101885.28;6184266;22;45329;-74
2023/09/30 03:50:03;;;;;;;;;7.00;7.00;;;;;17.28;72.93;101888.84;6183772;22;47110;-72
2023/09/30 03:52:29;;;;;;;;;4.67;3.33;;;;;17.09;73.36;101884.28;6209013;22;45714;-73
2023/09/30 03:54:54;;;;;;;;;9.00;6.33;;;;;17.04;73.51;101875.28;6184348;22;45404;-73
2023/09/30 03:57:20;;;;;;;;;5.67;5.00;;;;;17.04;73.27;101875.28;6211514;22;45427;-72
2023/09/30 03:59:48;;;;;;;;;4.00;4.00;;;;;16.93;73.56;101862.69;6209357;22;48520;-73
2023/09/30 04:02:14;;;;;;;;;7.67;7.67;;;;;16.99;73.26;101867.22;6211114;22;45299;-73
2023/09/30 04:04:40;;;;;;;;;5.00;4.00;;;;;16.99;73.57;101862.72;6178202;23;45373;-72
2023/09/30 04:07:05;;;;;;;;;6.67;6.00;;;;;16.95;74.04;101860.91;6181552;22;45375;-73
2023/09/30 04:09:32;;;;;;;;;7.00;5.00;;;;;17.00;73.98;101843.00;6180690;23;45700;-73
2023/09/30 04:11:57;;;;;;;;;5.00;4.00;;;;;16.90;74.29;101835.78;6181048;22;45475;-73
2023/09/30 04:14:29;;;;;;;;;7.67;7.67;;;;;16.87;74.27;101833.09;6180882;23;45831;-73
2023/09/30 04:16:55;;;;;;;;;6.00;6.00;;;;;16.87;74.06;101830.41;6204380;22;45358;-73
2023/09/30 04:19:21;;;;;;;;;9.00;5.33;;;;;16.91;74.12;101826.84;6180570;22;45883;-73
2023/09/30 04:21:46;;;;;;;;;5.00;5.00;;;;;16.92;74.13;101828.63;6178838;23;45558;-74
2023/09/30 04:24:11;;;;;;;;;7.33;6.00;;;;;16.92;74.07;101823.25;6181085;22;45387;-74
2023/09/30 04:26:37;;;;;;;;;5.67;5.00;;;;;16.92;74.30;101803.56;6178729;23;45768;-74
2023/09/30 04:29:04;;;;;;;;;9.00;7.00;;;;;16.88;74.40;101810.69;6180280;22;45756;-73
2023/09/30 04:31:30;;;;;;;;;5.00;5.00;;;;;16.84;74.58;101808.88;6179586;22;45501;-73
2023/09/30 04:34:01;;;;;;;;;11.33;9.67;;;;;16.87;74.50;101811.63;6180973;22;45431;-73
2023/09/30 04:36:27;;;;;;;;;9.33;7.67;;;;;16.81;74.68;101814.25;6178401;23;45379;-72
2023/09/30 04:38:52;;;;;;;;;9.00;6.00;;;;;16.88;74.96;101820.56;6180797;22;45336;-73
2023/09/30 04:41:18;;;;;;;;;6.33;6.00;;;;;16.88;74.72;101829.50;6180086;22;45522;-73
2023/09/30 04:43:44;;;;;;;;;5.33;5.00;;;;;16.90;74.98;101851.91;6181017;23;45292;-74
2023/09/30 04:46:09;;;;;;;;;9.33;9.33;;;;;16.92;75.05;101849.25;6182098;23;45775;-73
2023/09/30 04:48:35;;;;;;;;;8.00;7.00;;;;;16.98;75.04;101849.28;6180889;22;45969;-74
2023/09/30 04:51:04;;;;;;;;;9.33;7.33;;;;;16.96;74.97;101853.75;6180323;22;45407;-73
2023/09/30 04:53:30;;;;;;;;;6.67;5.00;;;;;16.86;74.93;101865.34;6178566;23;45448;-74
2023/09/30 04:55:55;;;;;;;;;9.00;7.33;;;;;16.78;75.30;101860.78;6181206;23;45352;-75
2023/09/30 04:58:21;;;;;;;;;8.00;6.00;;;;;16.87;75.54;101861.78;6180706;23;46746;-75
2023/09/30 05:00:46;;;;;;;;;4.67;4.67;;;;;16.83;75.19;101857.28;6181494;22;45438;-75
2023/09/30 05:03:12;;;;;;;;;7.00;6.00;;;;;16.81;75.47;101851.88;6181464;22;45442;-75
2023/09/30 05:05:37;;;;;;;;;5.00;5.00;;;;;16.76;75.53;101842.84;6178279;23;45466;-75
2023/09/30 05:08:04;;;;;;;;;5.67;5.67;;;;;16.78;75.50;101851.81;6180402;22;45546;-75
2023/09/30 05:10:29;;;;;;;;;6.00;5.00;;;;;16.76;75.47;101853.59;6180819;22;44759;-75
2023/09/30 05:12:55;;;;;;;;;8.00;6.33;;;;;16.83;76.04;101851.91;6180661;22;45498;-75
2023/09/30 05:15:21;;;;;;;;;6.00;6.00;;;;;16.83;76.11;101858.16;6180883;22;45467;-76
2023/09/30 05:17:48;;;;;;;;;7.33;7.33;;;;;16.92;75.84;101847.44;6179977;22;46192;-76
2023/09/30 05:20:17;;;;;;;;;4.33;4.33;;;;;16.89;75.55;101850.13;6180600;22;45323;-75
2023/09/30 05:22:45;;;;;;;;;6.00;5.67;;;;;16.84;75.58;101851.88;6179268;23;45682;-75
2023/09/30 05:25:11;;;;;;;;;5.33;5.00;;;;;16.77;76.01;101858.09;6203678;22;45620;-75
2023/09/30 05:27:37;;;;;;;;;12.67;7.33;;;;;16.74;75.72;101871.47;6204342;22;46624;-76
2023/09/30 05:30:04;;;;;;;;;6.00;5.67;;;;;16.78;75.65;101867.94;6180250;22;45399;-75
2023/09/30 05:32:30;;;;;;;;;7.33;5.33;;;;;16.77;75.92;101866.16;6181407;22;45697;-74
2023/09/30 05:34:56;;;;;;;;;11.00;8.00;;;;;16.73;75.74;101862.53;6181137;23;45351;-76
2023/09/30 05:37:21;;;;;;;;;6.67;6.67;;;;;16.72;75.98;101873.25;6181211;22;45871;-76
2023/09/30 05:39:48;;;;;;;;;10.00;8.33;;;;;16.79;75.88;101869.75;6180570;22;45469;-75
2023/09/30 05:42:15;;;;;;;;;10.67;10.00;;;;;16.71;75.95;101879.53;6179398;23;45395;-76
2023/09/30 05:44:42;;;;;;;;;10.33;7.00;;;;;16.65;75.73;101880.38;6182231;22;45431;-76
2023/09/30 05:47:08;;;;;;;;;11.67;10.67;;;;;16.66;75.48;101878.59;6182184;23;45406;-74
2023/09/30 05:49:33;;;;;;;;;8.67;6.00;;;;;16.61;76.09;101854.41;6180764;23;45371;-75
2023/09/30 05:51:59;;;;;;;;;11.00;9.00;;;;;16.59;75.85;101857.06;6183727;22;45345;-74
2023/09/30 05:54:24;;;;;;;;;11.33;7.67;;;;;16.54;75.96;101848.09;6182860;22;45738;-76
2023/09/30 05:56:50;;;;;;;;;9.67;8.67;;;;;16.52;75.84;101844.50;6182816;22;46013;-75
2023/09/30 05:59:15;;;;;;;;;9.00;9.00;;;;;16.57;75.79;101848.09;6180639;23;45332;-75
2023/09/30 06:01:42;;;;;;;;;7.00;7.00;;;;;16.52;75.99;101847.19;6181255;23;45308;-75
2023/09/30 06:04:07;;;;;;;;;15.33;11.00;;;;;16.49;76.30;101849.84;6188189;22;45494;-75
2023/09/30 06:06:33;;;;;;;;;10.33;9.67;;;;;16.49;76.09;101852.50;6212955;22;45547;-74
2023/09/30 06:08:58;;;;;;;;;8.00;7.33;;;;;16.54;76.23;101858.84;6185728;22;45439;-76
2023/09/30 06:11:24;;;;;;;;;10.33;9.00;;;;;16.54;76.24;101858.84;6212994;22;45479;-75
2023/09/30 06:14:06;;;;;;;;;13.00;10.67;;;;;16.79;76.18;101853.63;6213304;22;45412;-74
2023/09/30 06:16:31;;;;;;;;;11.33;10.00;;;;;16.53;76.48;101854.34;6184848;22;47976;-76
2023/09/30 06:18:57;;;;;;;;;11.00;10.33;;;;;16.58;76.46;101878.53;6185130;22;45539;-77
2023/09/30 06:21:25;;;;;;;;;13.00;11.33;;;;;16.70;76.33;101877.72;6212293;22;45419;-75
2023/09/30 06:23:53;;;;;;;;;12.33;12.33;;;;;16.65;76.36;101868.75;6212555;22;45414;-75
2023/09/30 06:26:20;;;;;;;;;11.67;11.00;;;;;16.78;76.53;101847.34;6212727;22;45970;-76
2023/09/30 06:28:47;;;;;;;;;15.00;13.33;;;;;16.71;76.47;101850.88;6184987;22;45684;-76
2023/09/30 06:31:13;;;;;;;;;11.33;11.33;;;;;16.71;76.51;101863.44;6212242;22;45499;-76
2023/09/30 06:33:39;;;;;;;;;9.00;7.33;;;;;16.76;76.44;101883.13;6185655;22;45526;-74
2023/09/30 06:36:16;;;;;;;;;16.00;11.33;;;;;16.96;76.40;101881.50;6212917;22;45402;-76
2023/09/30 06:38:42;;;;;;;;;10.67;10.67;;;;;16.81;76.41;101892.19;6213935;22;45475;-74
2023/09/30 06:41:07;;;;;;;;;12.00;12.00;;;;;16.84;76.10;101892.19;6213872;22;45336;-76
2023/09/30 06:43:35;;;;;;;;;9.67;9.67;;;;;16.88;76.31;101880.56;6212917;22;45372;-75
2023/09/30 06:46:07;;;;;;;;;12.67;9.00;;;;;17.11;75.94;101869.06;6212572;22;45304;-75
2023/09/30 06:48:32;;;;;;;;;15.00;14.00;;;;;17.00;75.57;101880.63;6213021;22;45397;-75
2023/09/30 06:50:59;;;;;;;;;13.00;11.67;;;;;16.96;75.69;101884.19;6211116;22;45384;-75
2023/09/30 06:53:24;;;;;;;;;16.67;12.00;;;;;16.98;76.00;101886.91;6184809;22;45384;-75
2023/09/30 06:55:51;;;;;;;;;18.67;17.00;;;;;17.05;75.67;101890.50;6211657;22;46059;-75
2023/09/30 06:58:20;;;;;;;;;13.00;12.00;;;;;17.12;75.90;101876.22;6212274;22;45453;-75
2023/09/30 07:00:50;;;;;;;;;11.00;10.67;;;;;17.15;75.45;101879.84;6212337;22;45348;-76
2023/09/30 07:03:16;;;;;;;;;15.33;14.00;;;;;17.19;75.91;101875.38;6213543;22;45436;-76
2023/09/30 07:05:49;;;;;;;;;12.33;10.67;;;;;17.41;75.59;101865.63;6209648;22;45864;-75
2023/09/30 07:08:16;;;;;;;;;14.33;12.33;;;;;17.37;76.22;101871.84;6212843;22;45331;-75
2023/09/30 07:10:42;;;;;;;;;12.00;12.00;;;;;17.36;75.45;101889.78;6212193;22;45389;-75
2023/09/30 07:13:08;;;;;;;;;13.33;12.33;;;;;17.41;75.26;101879.06;6212113;22;45476;-75
2023/09/30 07:15:33;;;;;;;;;13.67;12.33;;;;;17.49;75.25;101896.13;6184399;22;47686;-75
2023/09/30 07:17:59;;;;;;;;;11.33;9.33;;;;;17.51;75.03;101883.59;6183834;22;45500;-75
2023/09/30 07:20:24;;;;;;;;;12.00;12.00;;;;;17.57;75.35;101875.53;6185085;22;45427;-74
2023/09/30 07:22:50;;;;;;;;;10.00;8.33;;;;;17.57;75.05;101882.69;6212230;22;45401;-75
2023/09/30 07:25:17;;;;;;;;;9.67;9.67;;;;;17.57;75.01;101888.06;6211899;22;45753;-75
2023/09/30 07:27:45;;;;;;;;;14.00;12.00;;;;;17.84;74.89;101871.16;6211402;22;45388;-74
2023/09/30 07:30:14;;;;;;;;;9.67;9.67;;;;;17.88;74.77;101874.75;6212374;22;45677;-75
2023/09/30 07:32:41;;;;;;;;;13.67;12.00;;;;;17.94;74.39;101872.06;6185077;22;45513;-75
2023/09/30 07:35:08;;;;;;;;;9.00;9.00;;;;;17.91;74.50;101877.44;6184736;22;46909;-75
2023/09/30 07:37:33;;;;;;;;;14.33;12.00;;;;;17.99;74.39;101873.84;6212133;22;45386;-75
2023/09/30 07:39:59;;;;;;;;;9.33;9.33;;;;;18.14;74.36;101875.69;6211663;22;45257;-75
2023/09/30 07:42:25;;;;;;;;;15.67;14.00;;;;;18.30;73.55;101868.53;6212051;22;45407;-75
2023/09/30 07:44:50;;;;;;;;;14.33;12.00;;;;;18.42;73.06;101875.72;6184311;22;48282;-75
2023/09/30 07:47:15;;;;;;;;;12.00;12.00;;;;;18.49;72.60;101874.78;6212365;22;45307;-76
2023/09/30 07:49:41;;;;;;;;;13.00;12.00;;;;;18.54;72.94;101886.47;6184863;22;45356;-76
2023/09/30 07:52:06;;;;;;;;;13.00;8.67;;;;;18.59;72.73;101886.47;6212358;22;45711;-76
2023/09/30 07:54:32;;;;;;;;;13.33;11.33;;;;;18.67;72.56;101881.97;6211751;22;45420;-76
2023/09/30 07:56:58;;;;;;;;;9.67;7.00;;;;;18.71;72.30;101890.94;6212790;22;45833;-75
2023/09/30 07:59:24;;;;;;;;;14.33;12.67;;;;;18.77;71.85;101882.84;6210756;22;45428;-74
2023/09/30 08:01:50;;;;;;;;;17.33;13.67;;;;;18.75;71.85;101890.03;6211568;22;45502;-74
2023/09/30 08:04:15;;;;;;;;;14.00;12.33;;;;;18.70;72.07;101899.91;6208456;22;45379;-75
2023/09/30 08:06:43;;;;;;;;;11.67;11.33;;;;;18.65;71.87;101888.25;6211080;22;45398;-76
2023/09/30 08:09:11;;;;;;;;;20.00;15.00;;;;;18.68;72.19;101889.13;6211234;22;45418;-76
2023/09/30 08:11:37;;;;;;;;;13.00;12.00;;;;;18.73;71.76;101892.72;6184294;22;45440;-76
2023/09/30 08:14:06;;;;;;;;;12.00;11.67;;;;;18.77;71.97;101896.31;6209389;22;46904;-76
2023/09/30 08:16:36;;;;;;;;;12.67;11.67;;;;;18.81;72.20;101905.34;6184064;22;45451;-76
2023/09/30 08:19:03;;;;;;;;;13.00;13.00;;;;;18.90;71.67;101910.69;6184367;22;45327;-75
2023/09/30 08:21:28;;;;;;;;;13.67;12.00;;;;;18.96;71.59;101903.50;6184130;22;45883;-75
2023/09/30 08:23:54;;;;;;;;;12.67;12.00;;;;;19.12;71.53;101903.47;6211442;22;45443;-76
2023/09/30 08:26:19;;;;;;;;;11.33;11.33;;;;;19.24;71.22;101906.13;6209624;22;45359;-77
2023/09/30 08:28:44;;;;;;;;;4.67;4.67;;;;;19.34;70.90;101907.88;6211802;22;45379;-74
2023/09/30 08:31:10;;;;;;;;;14.33;13.33;;;;;19.33;70.32;101903.41;6211571;22;45400;-75
2023/09/30 08:33:41;;;;;;;;;13.00;13.00;;;;;19.47;70.43;101910.53;6184118;22;46698;-74
2023/09/30 08:36:08;;;;;;;;;16.67;15.33;;;;;19.59;69.87;101914.09;6184045;22;45663;-74
2023/09/30 08:38:37;;;;;;;;;15.00;14.67;;;;;19.82;69.73;101913.13;6211335;22;45427;-69
2023/09/30 08:41:03;;;;;;;;;15.67;14.00;;;;;19.71;69.54;101912.25;6212100;22;44731;-71
2023/09/30 08:43:30;;;;;;;;;14.33;13.67;;;;;19.78;69.67;101909.53;6211078;22;45333;-69
2023/09/30 08:45:56;;;;;;;;;16.33;15.00;;;;;19.98;69.54;101917.50;6211465;22;44777;-70
2023/09/30 08:48:23;;;;;;;;;15.33;14.00;;;;;20.24;69.06;101916.44;6211730;22;45443;-70
2023/09/30 08:50:58;;;;;;;;;17.00;10.00;;;;;20.21;68.64;101911.06;6212534;22;45254;-70
2023/09/30 08:53:24;;;;;;;;;16.00;14.33;;;;;20.22;68.05;101918.28;6211548;22;45107;-70
2023/09/30 08:55:54;;;;;;;;;15.00;13.67;;;;;20.32;67.87;101933.50;6211075;22;45313;-70
2023/09/30 08:58:23;;;;;;;;;15.33;15.00;;;;;20.11;68.47;101936.34;6212441;22;45364;-69
2023/09/30 09:00:50;;;;;;;;;15.67;15.33;;;;;20.25;68.16;101926.34;6184976;22;45330;-71
2023/09/30 09:03:16;;;;;;;;;17.00;14.00;;;;;20.22;67.46;101928.16;6211730;22;45373;-70
2023/09/30 09:05:47;;;;;;;;;17.33;14.33;;;;;20.25;67.85;101931.72;6178167;23;44967;-70
2023/09/30 09:08:23;;;;;;;;;20.33;15.67;;;;;20.55;67.50;101933.31;6180875;23;44969;-69
2023/09/30 09:11:00;;;;;;;;;19.33;19.33;;;;;20.55;67.38;101930.59;6180905;22;45336;-69
2023/09/30 09:13:26;;;;;;;;;16.67;16.67;;;;;20.39;67.40;101918.13;6180609;22;45478;-69
2023/09/30 09:16:06;;;;;;;;;19.00;18.00;;;;;20.68;67.27;101914.31;6180591;22;45369;-69
2023/09/30 09:18:33;;;;;;;;;18.00;16.67;;;;;20.65;67.05;101911.66;6179536;23;45342;-70
2023/09/30 09:21:13;;;;;;;;;19.33;16.67;;;;;20.97;66.15;101914.03;6182075;22;45328;-71
2023/09/30 09:23:46;;;;;;;;;18.67;16.33;;;;;21.04;66.27;101904.03;6204127;22;46665;-70
2023/09/30 09:26:31;;;;;;;;;19.00;19.00;;;;;21.11;66.29;101903.97;6181609;22;45309;-71
2023/09/30 09:29:01;;;;;;;;;21.00;18.33;;;;;21.00;65.77;101900.47;6182482;23;45394;-70
2023/09/30 09:31:29;;;;;;;;;18.33;16.33;;;;;20.97;66.04;101917.63;6179713;23;44880;-71
2023/09/30 09:33:54;;;;;;;;;26.00;18.33;;;;;21.01;65.63;101926.63;6204854;22;46853;-71
2023/09/30 09:36:20;;;;;;;;;18.33;17.33;;;;;21.00;65.34;101926.63;6181872;22;45498;-71
2023/09/30 09:38:53;;;;;;;;;17.67;17.67;;;;;21.21;65.77;101936.31;6182761;22;45317;-71
2023/09/30 09:41:23;;;;;;;;;22.00;20.33;;;;;21.34;65.30;101933.44;6182832;22;44816;-71
2023/09/30 09:43:52;;;;;;;;;19.00;18.33;;;;;21.49;64.84;101931.50;6181961;22;45391;-71
2023/09/30 09:46:18;;;;;;;;;19.00;19.00;;;;;21.51;64.72;101935.09;6180279;23;44808;-71
2023/09/30 09:48:48;;;;;;;;;22.33;19.00;;;;;21.64;64.21;101925.91;6182241;22;45463;-70
2023/09/30 09:51:14;;;;;;;;;18.00;18.00;;;;;21.64;64.04;101925.03;6180138;23;44747;-70
2023/09/30 09:53:42;;;;;;;;;17.33;17.33;;;;;21.75;63.77;101934.81;6182289;22;45141;-70
2023/09/30 09:56:12;;;;;;;;;19.67;18.00;;;;;21.62;63.14;101925.03;6179463;23;44816;-70
2023/09/30 09:58:42;;;;;;;;;23.33;19.67;;;;;21.66;63.68;101913.25;6182494;22;45038;-70
2023/09/30 10:01:09;;;;;;;;;17.33;17.00;;;;;21.73;64.13;101909.56;6205671;22;45324;-71
2023/09/30 10:03:36;;;;;;;;;19.33;17.67;;;;;21.80;63.53;101904.94;6179921;23;46933;-69
2023/09/30 10:06:02;;;;;;;;;18.67;17.67;;;;;21.91;62.74;101899.38;6206362;22;45659;-69
2023/09/30 10:08:36;;;;;;;;;17.67;16.33;;;;;22.00;62.06;101890.22;6212791;22;45313;-71
2023/09/30 10:11:02;;;;;;;;;18.67;18.67;;;;;21.76;62.60;101893.25;6213003;22;44840;-71
2023/09/30 10:13:53;;;;;;;;;20.67;18.00;;;;;22.07;62.86;101892.78;6184760;22;47248;-71
2023/09/30 10:16:36;;;;;;;;;17.67;17.00;;;;;22.11;62.27;101896.34;6184550;22;44784;-70
2023/09/30 10:19:08;;;;;;;;;18.67;16.00;;;;;22.05;62.48;101896.44;6212766;22;45376;-70
2023/09/30 10:21:33;;;;;;;;;15.00;14.33;;;;;21.96;62.38;101901.09;6213073;22;45277;-70
2023/09/30 10:24:23;;;;;;;;;20.00;18.00;;;;;22.42;62.08;101899.53;6211922;22;45262;-70
2023/09/30 10:27:31;;;;;;;;;18.00;14.00;;;;;22.54;61.65;101901.09;6185458;22;45442;-70
2023/09/30 10:30:10;;;;;;;;;17.00;14.33;;;;;22.55;61.03;101879.38;6212113;22;45373;-71
2023/09/30 10:32:51;;;;;;;;;19.33;16.00;;;;;22.72;60.96;101876.41;6210687;22;44865;-69
2023/09/30 10:35:47;;;;;;;;;15.67;14.00;;;;;22.80;60.66;101873.50;6185286;22;47098;-69
2023/09/30 10:38:21;;;;;;;;;9.00;8.00;;;;;23.13;60.59;101871.13;6187812;22;44929;-70
2023/09/30 10:40:46;;;;;;;;;14.33;14.33;;;;;23.07;60.38;101865.81;6212477;22;45304;-70
2023/09/30 10:43:39;;;;;;;;;17.33;12.33;;;;;23.45;59.37;101867.75;6212567;22;45326;-70
2023/09/30 10:46:26;;;;;;;;;16.33;14.33;;;;;23.58;58.10;101867.47;6209420;22;45395;-70
2023/09/30 10:48:52;;;;;;;;;18.00;14.33;;;;;23.42;59.12;101872.34;6184925;22;44856;-70
2023/09/30 10:51:21;;;;;;;;;10.33;9.67;;;;;23.72;58.81;101876.19;6213212;22;45135;-70
2023/09/30 10:53:47;;;;;;;;;9.00;7.67;;;;;23.80;58.25;101865.19;6213086;22;45281;-70
2023/09/30 10:56:13;;;;;;;;;13.00;8.67;;;;;23.69;57.65;101860.88;6212439;22;45362;-69
2023/09/30 10:58:43;;;;;;;;;15.67;10.33;;;;;23.96;57.76;101858.47;6185363;22;44810;-72
2023/09/30 11:01:09;;;;;;;;;18.33;12.00;;;;;23.90;57.87;101858.63;6212439;22;45348;-71
2023/09/30 11:03:34;;;;;;;;;7.33;5.00;;;;;23.93;57.16;101855.81;6213064;22;45281;-70
2023/09/30 11:06:00;;;;;;;;;9.33;8.00;;;;;23.86;57.45;101849.63;6210960;22;47706;-71
2023/09/30 11:08:29;;;;;;;;;11.00;9.00;;;;;23.92;57.04;101841.34;6215878;22;45277;-70
2023/09/30 11:10:56;;;;;;;;;13.00;9.33;;;;;23.79;56.97;101836.22;6215546;22;44789;-70
2023/09/30 11:13:22;;;;;;;;;10.00;9.33;;;;;23.89;56.52;101843.22;6215186;22;44925;-71
2023/09/30 11:15:59;;;;;;;;;10.67;10.67;;;;;23.91;56.04;101844.09;6215173;22;45040;-70
2023/09/30 11:18:24;;;;;;;;;16.67;11.00;;;;;24.00;56.07;101854.75;6187882;22;44729;-70
2023/09/30 11:20:49;;;;;;;;;12.67;10.00;;;;;24.16;55.44;101850.72;6215881;22;45601;-71